Time;durP1;ratioP1;P1;durP2;ratioP2;P2;SDS_P1;SDS_P2;PMS_P1;PMS_P2;Temp;Humidity;BMP_temperature;BMP_pressure;BME280_temperature;BME280_humidity;BME280_pressure;Samples;Min_cycle;Max_cycle;Signal;HPM_P1;HPM_P2
2023/09/12 00:00:14;;;;;;;18.38;17.67;;;22.70;99.90;;;;;;5111845;28;20208;-64
2023/09/12 00:02:40;;;;;;;19.30;18.60;;;22.70;99.90;;;;;;5111795;28;20301;-62
2023/09/12 00:05:08;;;;;;;18.50;17.90;;;22.60;99.90;;;;;;5111625;28;20241;-61
2023/09/12 00:07:37;;;;;;;18.17;17.55;;;22.70;99.90;;;;;;5111851;28;20220;-61
2023/09/12 00:10:04;;;;;;;18.23;17.63;;;22.70;99.90;;;;;;5112220;28;20206;-61
2023/09/12 00:12:30;;;;;;;19.70;19.00;;;22.60;99.90;;;;;;5111921;28;20309;-64
2023/09/12 00:14:57;;;;;;;18.40;17.70;;;22.70;99.90;;;;;;5111716;28;20675;-63
2023/09/12 00:17:26;;;;;;;18.58;17.88;;;22.70;99.90;;;;;;5112174;28;20236;-65
2023/09/12 00:19:53;;;;;;;19.48;18.77;;;22.60;99.90;;;;;;5111871;28;20751;-62
2023/09/12 00:22:20;;;;;;;18.35;17.73;;;22.50;99.90;;;;;;5111557;28;20232;-61
2023/09/12 00:24:47;;;;;;;21.23;20.33;;;22.50;99.90;;;;;;5111463;28;20206;-64
2023/09/12 00:27:14;;;;;;;20.05;19.35;;;22.40;99.90;;;;;;5111556;28;20594;-62
2023/09/12 00:29:41;;;;;;;19.85;19.15;;;22.40;99.90;;;;;;5114365;28;20232;-62
2023/09/12 00:32:07;;;;;;;19.67;18.90;;;22.30;99.90;;;;;;5113201;28;20253;-62
2023/09/12 00:34:35;;;;;;;20.33;19.33;;;22.30;99.90;;;;;;5116136;28;20204;-62
2023/09/12 00:37:02;;;;;;;21.92;21.10;;;22.30;99.90;;;;;;5119765;28;20220;-62
2023/09/12 00:39:30;;;;;;;22.08;21.17;;;22.20;99.90;;;;;;5115947;28;20288;-63
2023/09/12 00:41:57;;;;;;;19.48;18.77;;;22.20;99.90;;;;;;5113539;28;20241;-61
2023/09/12 00:44:23;;;;;;;19.77;19.08;;;22.10;99.90;;;;;;5111339;28;20212;-62
2023/09/12 00:46:51;;;;;;;20.10;19.40;;;22.00;99.90;;;;;;5111638;28;20226;-64
2023/09/12 00:49:18;;;;;;;18.33;17.63;;;21.90;99.90;;;;;;5111030;28;20205;-63
2023/09/12 00:51:49;;;;;;;19.95;19.25;;;21.90;99.90;;;;;;5111167;28;20232;-64
2023/09/12 00:54:16;;;;;;;20.85;20.10;;;21.80;99.90;;;;;;5111577;28;20704;-64
2023/09/12 00:56:43;;;;;;;18.90;18.15;;;21.80;99.90;;;;;;5111282;28;20281;-61
2023/09/12 00:59:11;;;;;;;17.73;17.13;;;21.80;99.90;;;;;;5111853;28;20230;-63
2023/09/12 01:01:38;;;;;;;19.30;18.60;;;21.90;99.90;;;;;;5112629;28;20222;-61
2023/09/12 01:04:05;;;;;;;20.75;19.98;;;21.90;99.90;;;;;;5111855;28;20591;-63
2023/09/12 01:06:34;;;;;;;19.58;18.88;;;21.80;99.90;;;;;;5111014;28;20260;-61
2023/09/12 01:09:02;;;;;;;19.77;18.98;;;21.80;99.90;;;;;;5110918;28;20312;-62
2023/09/12 01:11:30;;;;;;;19.17;18.48;;;21.70;99.90;;;;;;5110737;28;20222;-61
2023/09/12 01:13:57;;;;;;;19.58;18.85;;;21.60;99.90;;;;;;5111296;28;20212;-62
2023/09/12 01:16:23;;;;;;;20.48;19.77;;;21.50;99.90;;;;;;5110977;28;20201;-65
2023/09/12 01:18:50;;;;;;;21.48;20.67;;;21.50;99.90;;;;;;5111083;28;20577;-62
2023/09/12 01:21:53;;;;;;;20.65;19.95;;;21.40;99.90;;;;;;5110983;28;20670;-62
2023/09/12 01:24:53;;;;;;;20.00;19.20;;;21.50;99.90;;;;;;5100188;28;20204;-62
2023/09/12 01:27:23;;;;;;;20.63;19.83;;;21.50;99.90;;;;;;5106542;28;20256;-64
2023/09/12 01:29:54;;;;;;;21.75;20.95;;;21.50;99.90;;;;;;5111303;28;20208;-61
2023/09/12 01:32:21;;;;;;;19.33;18.52;;;21.40;99.90;;;;;;5110603;28;20260;-67
2023/09/12 01:34:48;;;;;;;20.30;19.58;;;21.40;99.90;;;;;;5110907;28;20202;-63
2023/09/12 01:37:15;;;;;;;19.10;18.40;;;21.60;99.90;;;;;;5110930;28;20202;-61
2023/09/12 01:39:42;;;;;;;19.15;18.45;;;21.60;99.90;;;;;;5110890;28;20209;-64
2023/09/12 01:42:13;;;;;;;21.55;20.75;;;21.60;99.90;;;;;;5115101;28;20312;-60
2023/09/12 01:44:43;;;;;;;20.25;19.50;;;21.60;99.90;;;;;;5108315;28;20864;-62
2023/09/12 01:47:12;;;;;;;20.55;19.58;;;21.50;99.90;;;;;;5115051;28;20756;-65
2023/09/12 01:49:41;;;;;;;19.95;19.15;;;21.50;99.90;;;;;;5112570;28;20644;-64
2023/09/12 01:52:29;;;;;;;19.55;18.85;;;21.50;99.90;;;;;;5119404;28;20240;-65
2023/09/12 01:54:57;;;;;;;23.10;22.30;;;21.50;99.90;;;;;;5090365;28;20289;-63
2023/09/12 01:57:24;;;;;;;19.73;19.02;;;21.50;99.90;;;;;;5089442;28;20222;-61
2023/09/12 01:59:52;;;;;;;30.17;29.00;;;21.50;99.90;;;;;;5089122;28;20202;-62
2023/09/12 02:02:19;;;;;;;19.80;19.10;;;21.50;99.90;;;;;;5091237;28;20223;-61
2023/09/12 02:04:52;;;;;;;20.92;20.13;;;21.50;99.90;;;;;;5091746;28;20570;-62
2023/09/12 02:07:18;;;;;;;21.70;20.90;;;21.50;99.90;;;;;;5091580;28;20644;-64
2023/09/12 02:09:45;;;;;;;19.42;18.73;;;21.40;99.90;;;;;;5091214;28;20203;-61
2023/09/12 02:12:12;;;;;;;18.77;18.10;;;21.40;99.90;;;;;;5094213;28;20234;-61
2023/09/12 02:14:39;;;;;;;22.08;21.27;;;21.40;99.90;;;;;;5114116;28;20198;-62
2023/09/12 02:17:07;;;;;;;20.63;19.88;;;21.30;99.90;;;;;;5115842;28;20198;-63
2023/09/12 02:19:34;;;;;;;22.10;21.30;;;21.30;99.90;;;;;;5123872;28;20205;-64
2023/09/12 02:22:00;;;;;;;26.27;25.23;;;21.30;99.90;;;;;;5128062;28;20285;-61
2023/09/12 02:24:27;;;;;;;20.10;19.33;;;21.40;99.90;;;;;;5124590;28;20242;-61
2023/09/12 02:26:54;;;;;;;38.90;36.88;;;21.40;99.90;;;;;;5123564;28;20222;-63
2023/09/12 02:29:21;;;;;;;19.92;19.13;;;21.40;99.90;;;;;;5116268;28;20201;-63
2023/09/12 02:31:48;;;;;;;19.25;18.45;;;21.40;99.90;;;;;;5113582;28;20235;-61
2023/09/12 02:34:16;;;;;;;20.95;20.05;;;21.40;99.90;;;;;;5113385;28;20586;-64
2023/09/12 02:36:43;;;;;;;22.05;21.15;;;21.40;99.90;;;;;;5113776;28;20205;-61
2023/09/12 02:39:09;;;;;;;26.75;25.65;;;21.30;99.90;;;;;;5113972;28;20206;-62
2023/09/12 02:41:36;;;;;;;20.27;19.48;;;21.30;99.90;;;;;;5115470;28;20232;-63
2023/09/12 02:44:03;;;;;;;20.50;19.70;;;21.30;99.90;;;;;;5115687;28;20284;-62
2023/09/12 02:46:30;;;;;;;17.75;17.15;;;21.30;99.90;;;;;;5117860;28;20253;-64
2023/09/12 02:48:57;;;;;;;19.80;19.10;;;21.40;99.90;;;;;;5118593;28;20217;-63
2023/09/12 02:51:26;;;;;;;21.88;21.08;;;21.40;99.90;;;;;;5117961;28;20308;-62
2023/09/12 02:53:53;;;;;;;20.95;20.15;;;21.30;99.90;;;;;;5116232;28;20601;-62
2023/09/12 02:56:20;;;;;;;19.48;18.77;;;21.30;99.90;;;;;;5115670;28;20202;-64
2023/09/12 02:58:47;;;;;;;20.85;20.05;;;21.20;99.90;;;;;;5117110;28;20576;-62
2023/09/12 03:01:16;;;;;;;20.23;19.48;;;21.20;99.90;;;;;;5114367;28;20221;-61
2023/09/12 03:03:46;;;;;;;18.50;17.85;;;21.20;99.90;;;;;;5114350;28;20198;-63
2023/09/12 03:06:13;;;;;;;20.77;19.98;;;21.20;99.90;;;;;;5114412;28;20202;-62
2023/09/12 03:08:41;;;;;;;20.45;19.70;;;21.20;99.90;;;;;;5106409;28;20209;-63
2023/09/12 03:11:08;;;;;;;19.90;19.15;;;21.30;99.90;;;;;;5114253;28;20198;-62
2023/09/12 03:13:36;;;;;;;20.92;20.13;;;21.30;99.90;;;;;;5113936;28;20198;-64
2023/09/12 03:16:03;;;;;;;21.02;20.23;;;21.30;99.90;;;;;;5114680;28;20236;-61
2023/09/12 03:18:30;;;;;;;19.70;19.00;;;21.30;99.90;;;;;;5114581;28;20202;-63
2023/09/12 03:20:57;;;;;;;19.20;18.50;;;21.30;99.90;;;;;;5114798;28;20202;-63
2023/09/12 03:23:24;;;;;;;20.55;19.75;;;21.40;99.90;;;;;;5115030;28;20212;-64
2023/09/12 03:25:52;;;;;;;20.02;19.33;;;21.30;99.90;;;;;;5124078;28;20206;-61
2023/09/12 03:28:19;;;;;;;22.35;21.45;;;21.40;99.90;;;;;;5123912;28;20703;-63
2023/09/12 03:30:46;;;;;;;21.83;21.02;;;21.30;99.90;;;;;;5127436;28;20306;-61
2023/09/12 03:33:12;;;;;;;19.23;18.52;;;21.40;99.90;;;;;;5118341;28;20313;-63
2023/09/12 03:35:39;;;;;;;20.55;19.75;;;21.40;99.90;;;;;;5115785;28;20204;-61
2023/09/12 03:38:06;;;;;;;19.73;19.02;;;21.40;99.90;;;;;;5116555;28;20285;-61
2023/09/12 03:40:33;;;;;;;20.73;20.02;;;21.30;99.90;;;;;;5114224;28;20198;-63
2023/09/12 03:43:01;;;;;;;22.25;21.27;;;21.30;99.90;;;;;;5098329;22;20223;-60
2023/09/12 03:45:28;;;;;;;19.52;18.83;;;21.30;99.90;;;;;;5072153;28;20290;-60
2023/09/12 03:47:55;;;;;;;22.95;22.15;;;21.30;99.90;;;;;;5072120;28;20233;-60
2023/09/12 03:50:21;;;;;;;20.58;19.85;;;21.20;99.90;;;;;;5071754;28;20209;-60
2023/09/12 03:52:48;;;;;;;21.20;20.45;;;21.30;99.90;;;;;;5085040;28;20226;-61
2023/09/12 03:55:15;;;;;;;20.77;20.00;;;21.30;99.90;;;;;;5092513;28;20206;-60
2023/09/12 03:57:42;;;;;;;19.23;18.50;;;21.20;99.90;;;;;;5083768;28;20221;-60
2023/09/12 04:00:12;;;;;;;21.75;20.95;;;21.30;99.90;;;;;;5092524;28;20215;-61
2023/09/12 04:02:39;;;;;;;21.35;20.55;;;21.20;99.90;;;;;;5092238;28;20218;-61
2023/09/12 04:05:06;;;;;;;18.65;17.98;;;21.20;99.90;;;;;;5092378;28;20207;-60
2023/09/12 04:07:33;;;;;;;19.73;19.00;;;21.20;99.90;;;;;;5092981;28;20249;-61
2023/09/12 04:10:01;;;;;;;21.83;20.92;;;21.10;99.90;;;;;;5092659;28;20875;-61
2023/09/12 04:12:27;;;;;;;19.10;18.40;;;21.10;99.90;;;;;;5093121;28;20226;-62
2023/09/12 04:14:54;;;;;;;19.60;18.85;;;21.20;99.90;;;;;;5094236;28;20205;-62
2023/09/12 04:17:23;;;;;;;20.42;19.70;;;21.20;99.90;;;;;;5092726;28;20203;-61
2023/09/12 04:19:50;;;;;;;18.60;17.90;;;21.20;99.90;;;;;;5092767;28;20198;-61
2023/09/12 04:22:17;;;;;;;19.02;18.33;;;21.30;99.90;;;;;;5092134;28;20228;-61
2023/09/12 04:24:44;;;;;;;19.35;18.63;;;21.30;99.90;;;;;;5083762;28;20207;-61
2023/09/12 04:27:10;;;;;;;20.27;19.58;;;21.30;99.90;;;;;;5092198;28;20438;-60
2023/09/12 04:29:37;;;;;;;20.63;19.88;;;21.30;99.90;;;;;;5091725;28;20687;-60
2023/09/12 04:32:04;;;;;;;22.95;22.05;;;21.30;99.90;;;;;;5091596;28;20226;-61
2023/09/12 04:34:33;;;;;;;21.08;20.23;;;21.20;99.90;;;;;;5091413;28;20209;-62
2023/09/12 04:37:02;;;;;;;20.88;20.08;;;21.10;99.90;;;;;;5091401;28;20205;-61
2023/09/12 04:39:29;;;;;;;17.90;17.25;;;21.10;99.90;;;;;;5091480;28;20607;-61
2023/09/12 04:41:56;;;;;;;18.58;17.88;;;21.20;99.90;;;;;;5091453;28;20746;-61
2023/09/12 04:44:23;;;;;;;20.02;19.33;;;21.20;99.90;;;;;;5091174;28;20207;-62
2023/09/12 04:46:50;;;;;;;19.63;18.92;;;21.30;99.90;;;;;;5091792;28;20203;-61
2023/09/12 04:49:17;;;;;;;21.73;20.90;;;21.20;99.90;;;;;;5091621;28;20623;-61
2023/09/12 04:51:45;;;;;;;19.38;18.63;;;21.20;99.90;;;;;;5091332;28;20222;-61
2023/09/12 04:54:13;;;;;;;20.25;19.52;;;21.20;99.90;;;;;;5091362;28;20210;-62
2023/09/12 04:56:39;;;;;;;19.88;19.17;;;21.20;99.90;;;;;;5091642;28;20206;-62
2023/09/12 04:59:06;;;;;;;21.05;20.23;;;21.20;99.90;;;;;;5091337;28;20206;-61
2023/09/12 05:01:34;;;;;;;17.92;17.23;;;21.10;99.90;;;;;;5091068;28;20203;-61
2023/09/12 05:04:00;;;;;;;20.88;20.17;;;21.10;99.90;;;;;;5090881;28;20217;-61
2023/09/12 05:06:27;;;;;;;18.05;17.35;;;21.10;99.90;;;;;;5091521;28;20289;-61
2023/09/12 05:08:55;;;;;;;18.45;17.75;;;21.10;99.90;;;;;;5091439;28;20248;-61
2023/09/12 05:11:24;;;;;;;20.10;19.30;;;21.10;99.90;;;;;;5090906;28;20251;-61
2023/09/12 05:13:50;;;;;;;19.33;18.52;;;21.10;99.90;;;;;;5090919;28;20692;-61
2023/09/12 05:16:17;;;;;;;18.73;18.02;;;21.00;99.90;;;;;;5087144;28;20200;-61
2023/09/12 05:18:44;;;;;;;20.75;19.95;;;20.90;99.90;;;;;;5088469;28;20310;-61
2023/09/12 05:21:11;;;;;;;18.43;17.73;;;21.00;99.90;;;;;;5090599;28;20206;-61
2023/09/12 05:23:38;;;;;;;20.15;19.45;;;21.00;99.90;;;;;;5089920;28;20226;-61
2023/09/12 05:26:06;;;;;;;19.83;19.02;;;21.10;99.90;;;;;;5090927;28;20212;-60
2023/09/12 05:28:33;;;;;;;21.00;20.25;;;21.10;99.90;;;;;;5090834;28;20222;-61
2023/09/12 05:30:59;;;;;;;21.23;20.48;;;21.10;99.90;;;;;;5091597;28;20586;-61
2023/09/12 05:33:26;;;;;;;21.83;21.00;;;21.00;99.90;;;;;;5091067;28;20318;-61
2023/09/12 05:35:53;;;;;;;24.75;23.85;;;20.80;99.90;;;;;;5093687;28;20206;-61
2023/09/12 05:38:20;;;;;;;29.98;28.88;;;20.60;99.90;;;;;;5095769;28;20630;-62
2023/09/12 05:40:49;;;;;;;27.70;26.67;;;20.40;99.90;;;;;;5092591;28;20297;-62
2023/09/12 05:43:18;;;;;;;33.08;31.85;;;20.40;99.90;;;;;;5092882;28;20230;-62
2023/09/12 05:45:45;;;;;;;26.73;25.77;;;20.30;99.90;;;;;;5093666;28;20206;-63
2023/09/12 05:48:12;;;;;;;25.70;24.70;;;20.30;99.90;;;;;;5092297;28;20686;-64
2023/09/12 05:50:39;;;;;;;24.27;23.35;;;20.30;99.90;;;;;;5092239;28;20751;-62
2023/09/12 05:53:05;;;;;;;37.10;35.78;;;20.20;99.90;;;;;;5092332;28;20226;-64
2023/09/12 05:55:32;;;;;;;28.98;27.90;;;20.20;99.90;;;;;;5094938;28;20213;-63
2023/09/12 05:57:59;;;;;;;33.03;31.77;;;20.20;99.90;;;;;;5089524;28;20199;-62
2023/09/12 06:00:27;;;;;;;30.15;29.08;;;20.20;99.90;;;;;;5092382;28;20249;-62
2023/09/12 06:02:54;;;;;;;28.42;27.33;;;20.30;99.90;;;;;;5092581;28;20222;-62
2023/09/12 06:05:21;;;;;;;38.22;36.88;;;20.30;99.90;;;;;;5093711;28;20304;-63
2023/09/12 06:07:47;;;;;;;28.08;27.08;;;20.30;99.90;;;;;;5087541;28;20222;-62
2023/09/12 06:10:14;;;;;;;28.40;27.35;;;20.30;99.90;;;;;;5097091;28;20203;-62
2023/09/12 06:12:41;;;;;;;25.45;24.48;;;20.40;99.90;;;;;;5095277;28;20225;-63
2023/09/12 06:15:08;;;;;;;23.45;22.60;;;20.40;99.90;;;;;;5094954;28;20206;-63
2023/09/12 06:17:36;;;;;;;31.02;29.73;;;20.40;99.90;;;;;;5095112;28;20203;-62
2023/09/12 06:20:06;;;;;;;22.43;21.63;;;20.40;99.90;;;;;;5095015;28;20236;-62
2023/09/12 06:22:33;;;;;;;27.77;26.77;;;20.50;99.90;;;;;;5094220;28;20231;-62
2023/09/12 06:25:00;;;;;;;21.02;20.27;;;20.50;99.90;;;;;;5094236;28;20652;-64
2023/09/12 06:27:27;;;;;;;25.35;24.42;;;20.50;99.90;;;;;;5093707;28;20229;-62
2023/09/12 06:29:54;;;;;;;26.60;25.60;;;20.50;99.90;;;;;;5093925;28;20213;-62
2023/09/12 06:32:20;;;;;;;31.20;29.83;;;20.50;99.90;;;;;;5093697;28;20227;-62
2023/09/12 06:34:49;;;;;;;30.33;29.23;;;20.60;99.90;;;;;;5093870;28;20199;-62
2023/09/12 06:37:15;;;;;;;20.23;19.13;;;20.70;99.90;;;;;;5093545;28;20202;-63
2023/09/12 06:39:42;;;;;;;18.70;17.95;;;20.80;99.90;;;;;;5093466;28;20686;-64
2023/09/12 06:42:10;;;;;;;16.90;16.30;;;21.00;99.90;;;;;;5093634;28;20242;-63
2023/09/12 06:44:37;;;;;;;22.58;21.50;;;21.10;99.90;;;;;;5093324;28;20668;-64
2023/09/12 06:47:05;;;;;;;16.10;15.50;;;21.20;99.90;;;;;;5093336;28;20217;-63
2023/09/12 06:49:33;;;;;;;15.93;15.23;;;21.30;99.90;;;;;;5093572;28;20237;-62
2023/09/12 06:52:01;;;;;;;15.52;14.93;;;21.40;99.90;;;;;;5093559;28;20268;-62
2023/09/12 06:54:28;;;;;;;16.13;15.52;;;21.50;99.90;;;;;;5093397;28;20206;-61
2023/09/12 06:56:54;;;;;;;15.88;15.27;;;21.70;99.90;;;;;;5093590;28;20205;-62
2023/09/12 06:59:21;;;;;;;17.52;16.85;;;21.80;99.90;;;;;;5093437;28;20195;-62
2023/09/12 07:01:48;;;;;;;16.33;15.63;;;21.90;99.90;;;;;;5093182;28;20218;-63
2023/09/12 07:04:15;;;;;;;16.98;16.35;;;22.00;99.90;;;;;;5093270;28;20676;-63
2023/09/12 07:06:42;;;;;;;16.58;15.98;;;22.20;99.90;;;;;;5093242;28;20207;-61
2023/09/12 07:09:13;;;;;;;18.92;18.20;;;22.30;99.90;;;;;;5093064;28;20381;-63
2023/09/12 07:11:40;;;;;;;17.02;16.33;;;22.40;99.90;;;;;;5093460;28;20226;-63
2023/09/12 07:14:07;;;;;;;20.80;20.00;;;22.40;99.90;;;;;;5093168;28;20209;-63
2023/09/12 07:16:34;;;;;;;19.08;18.38;;;22.50;99.90;;;;;;5093625;28;20256;-63
2023/09/12 07:19:01;;;;;;;19.65;18.95;;;22.60;99.90;;;;;;5093151;28;20201;-64
2023/09/12 07:21:28;;;;;;;20.60;19.90;;;22.70;99.90;;;;;;5092850;28;20194;-63
2023/09/12 07:23:54;;;;;;;19.85;19.15;;;22.80;99.90;;;;;;5092708;28;20612;-63
2023/09/12 07:26:23;;;;;;;20.38;19.67;;;22.90;99.90;;;;;;5093423;28;20203;-62
2023/09/12 07:28:49;;;;;;;21.52;20.73;;;23.00;99.90;;;;;;5092987;28;20222;-61
2023/09/12 07:31:17;;;;;;;20.42;19.73;;;23.10;99.90;;;;;;5092813;28;20656;-62
2023/09/12 07:33:44;;;;;;;20.10;19.35;;;23.30;99.90;;;;;;5092451;28;20244;-62
2023/09/12 07:36:12;;;;;;;20.00;19.30;;;23.40;99.90;;;;;;5092620;28;20652;-62
2023/09/12 07:38:38;;;;;;;18.60;17.90;;;23.50;99.90;;;;;;5092776;28;20221;-62
2023/09/12 07:41:05;;;;;;;19.63;18.92;;;23.70;99.90;;;;;;5092801;28;20214;-62
2023/09/12 07:43:33;;;;;;;18.48;17.80;;;23.90;99.90;;;;;;5092388;28;20226;-62
2023/09/12 07:46:00;;;;;;;18.42;17.75;;;24.00;99.90;;;;;;5092406;28;20205;-62
2023/09/12 07:48:27;;;;;;;19.38;18.58;;;24.10;99.90;;;;;;5092374;28;20229;-62
2023/09/12 07:50:54;;;;;;;21.88;21.08;;;24.20;99.90;;;;;;5084249;28;20216;-62
2023/09/12 07:53:22;;;;;;;20.90;20.13;;;24.40;99.90;;;;;;5092362;28;20222;-62
2023/09/12 07:55:49;;;;;;;22.10;21.30;;;24.40;99.90;;;;;;5092483;28;20579;-62
2023/09/12 07:58:18;;;;;;;22.05;21.25;;;24.50;99.90;;;;;;5092416;28;20259;-62
2023/09/12 08:00:47;;;;;;;25.85;24.85;;;24.60;99.90;;;;;;5092491;28;20250;-62
2023/09/12 08:03:14;;;;;;;23.67;22.77;;;24.80;99.90;;;;;;5091770;28;20233;-62
2023/09/12 08:05:40;;;;;;;17.15;16.55;;;25.00;99.90;;;;;;5092916;28;20309;-62
2023/09/12 08:08:07;;;;;;;17.83;17.23;;;25.20;99.90;;;;;;5094582;28;20223;-62
2023/09/12 08:10:34;;;;;;;15.85;15.25;;;25.50;99.90;;;;;;5092784;28;20252;-62
2023/09/12 08:13:01;;;;;;;16.85;16.25;;;25.60;99.90;;;;;;5091965;28;20218;-62
2023/09/12 08:15:28;;;;;;;18.10;17.40;;;25.80;99.90;;;;;;5092731;28;20202;-64
2023/09/12 08:17:56;;;;;;;18.58;17.80;;;25.80;99.90;;;;;;5092109;28;20201;-63
2023/09/12 08:20:23;;;;;;;19.75;18.95;;;25.80;99.90;;;;;;5092302;28;20603;-64
2023/09/12 08:22:50;;;;;;;19.95;19.10;;;25.90;99.90;;;;;;5091793;28;20230;-64
2023/09/12 08:25:17;;;;;;;19.13;18.42;;;26.00;99.90;;;;;;5092470;28;20213;-64
2023/09/12 08:27:44;;;;;;;18.02;17.33;;;26.10;99.90;;;;;;5091748;28;20195;-62
2023/09/12 08:30:12;;;;;;;21.25;20.45;;;26.20;99.90;;;;;;5091882;28;20206;-63
2023/09/12 08:32:43;;;;;;;20.65;19.75;;;26.30;99.90;;;;;;5091406;28;20222;-61
2023/09/12 08:35:12;;;;;;;20.60;19.80;;;26.40;99.90;;;;;;5091913;28;20199;-61
2023/09/12 08:37:39;;;;;;;22.17;21.38;;;26.70;99.90;;;;;;5091662;28;20210;-61
2023/09/12 08:40:08;;;;;;;21.27;20.48;;;26.70;99.90;;;;;;5091674;28;20190;-62
2023/09/12 08:42:40;;;;;;;22.20;21.40;;;26.50;99.90;;;;;;5091103;28;20581;-62
2023/09/12 08:45:12;;;;;;;23.95;23.05;;;26.20;99.90;;;;;;5091568;28;20293;-61
2023/09/12 08:47:41;;;;;;;22.10;21.30;;;26.10;99.90;;;;;;5094289;28;20583;-62
2023/09/12 08:50:13;;;;;;;19.75;19.00;;;26.00;99.90;;;;;;5092196;28;20722;-62
2023/09/12 08:52:40;;;;;;;20.45;19.65;;;26.00;99.90;;;;;;5091372;28;20215;-62
2023/09/12 08:55:07;;;;;;;24.60;23.60;;;26.00;99.90;;;;;;5091815;28;20230;-61
2023/09/12 08:57:36;;;;;;;27.42;26.42;;;26.20;99.90;;;;;;5091907;28;20208;-61
2023/09/12 09:00:05;;;;;;;28.63;27.55;;;26.20;99.90;;;;;;5092055;28;20318;-61
2023/09/12 09:02:34;;;;;;;24.05;23.15;;;26.30;99.90;;;;;;5091537;28;20222;-61
2023/09/12 09:05:04;;;;;;;28.70;27.63;;;26.30;99.90;;;;;;5091539;28;20583;-62
2023/09/12 09:07:34;;;;;;;20.83;20.08;;;26.30;99.90;;;;;;5091456;28;20210;-63
2023/09/12 09:10:03;;;;;;;21.02;20.23;;;26.40;99.90;;;;;;5087916;28;20222;-63
2023/09/12 09:12:30;;;;;;;24.00;23.10;;;26.50;99.90;;;;;;5098289;28;20219;-63
2023/09/12 09:14:57;;;;;;;24.45;23.55;;;26.70;99.90;;;;;;5098135;28;20220;-63
2023/09/12 09:17:24;;;;;;;23.88;22.98;;;26.80;99.90;;;;;;5098209;28;20213;-61
2023/09/12 09:19:51;;;;;;;24.35;23.40;;;26.90;99.90;;;;;;5098128;28;20241;-61
2023/09/12 09:22:18;;;;;;;22.70;21.90;;;27.10;99.90;;;;;;5097864;28;20222;-61
2023/09/12 09:24:46;;;;;;;22.33;21.42;;;27.50;99.90;;;;;;5097667;28;20424;-61
2023/09/12 09:27:32;;;;;;;22.20;21.40;;;27.60;99.90;;;;;;5098439;28;20203;-60
2023/09/12 09:29:59;;;;;;;24.58;23.67;;;27.70;99.90;;;;;;5089640;28;20228;-62
2023/09/12 09:32:26;;;;;;;24.55;23.65;;;27.90;99.90;;;;;;5097848;28;20224;-61
2023/09/12 09:34:53;;;;;;;29.13;28.02;;;28.20;99.90;;;;;;5097588;28;20579;-61
2023/09/12 09:37:20;;;;;;;29.15;28.02;;;28.30;99.90;;;;;;5098185;28;20202;-60
2023/09/12 09:39:52;;;;;;;29.20;28.13;;;28.40;99.90;;;;;;5098065;28;20211;-62
2023/09/12 09:42:19;;;;;;;29.08;27.98;;;28.50;99.90;;;;;;5111079;22;20299;-64
2023/09/12 09:44:46;;;;;;;39.10;37.70;;;28.60;99.90;;;;;;5055575;28;20203;-63
2023/09/12 09:47:13;;;;;;;30.25;29.05;;;28.80;99.90;;;;;;5057139;28;20673;-63
2023/09/12 09:49:40;;;;;;;30.50;29.40;;;29.00;99.90;;;;;;5057203;28;20230;-64
2023/09/12 09:52:07;;;;;;;60.75;58.53;;;29.10;99.90;;;;;;5057676;28;20226;-63
2023/09/12 09:54:34;;;;;;;49.08;47.30;;;29.20;99.90;;;;;;5058499;28;20708;-64
2023/09/12 09:57:02;;;;;;;60.95;58.65;;;29.20;99.90;;;;;;5058163;28;20219;-62
2023/09/12 09:59:29;;;;;;;58.33;56.22;;;29.40;99.90;;;;;;5041431;28;20728;-64
2023/09/12 10:01:59;;;;;;;55.83;53.72;;;29.60;99.90;;;;;;5040273;28;20214;-62
2023/09/12 10:04:28;;;;;;;93.95;90.68;;;29.70;99.90;;;;;;5057379;28;20208;-64
2023/09/12 10:06:58;;;;;;;52.72;50.80;;;29.80;99.90;;;;;;5057601;28;20204;-63
2023/09/12 10:09:28;;;;;;;57.40;55.33;;;29.80;99.90;;;;;;5057354;28;20319;-64
2023/09/12 10:11:56;;;;;;;60.35;58.15;;;29.90;99.90;;;;;;5057153;28;20238;-63
2023/09/12 10:14:27;;;;;;;83.93;80.70;;;30.00;99.90;;;;;;5056957;28;20207;-63
2023/09/12 10:17:02;;;;;;;56.28;54.22;;;30.20;99.90;;;;;;5057446;28;20291;-63
2023/09/12 10:19:37;;;;;;;68.43;65.85;;;30.30;99.90;;;;;;5057556;28;20712;-62
2023/09/12 10:22:10;;;;;;;83.05;80.07;;;30.30;99.90;;;;;;5053340;28;20220;-64
2023/09/12 10:24:38;;;;;;;71.68;69.10;;;30.00;99.90;;;;;;5053559;28;20214;-63
2023/09/12 10:27:06;;;;;;;68.80;66.30;;;29.80;99.90;;;;;;5053526;28;20580;-63
2023/09/12 10:29:36;;;;;;;81.55;78.68;;;29.90;99.90;;;;;;5054138;28;20230;-62
2023/09/12 10:32:03;;;;;;;87.15;84.05;;;30.10;99.90;;;;;;5053852;28;20308;-63
2023/09/12 10:34:32;;;;;;;85.75;82.75;;;30.20;99.90;;;;;;5053684;28;20291;-63
2023/09/12 10:37:00;;;;;;;94.70;91.35;;;30.40;99.90;;;;;;5034186;28;20296;-63
2023/09/12 10:39:28;;;;;;;66.32;63.83;;;30.70;99.90;;;;;;5033740;28;20211;-64
2023/09/12 10:41:56;;;;;;;76.65;73.85;;;30.90;99.90;;;;;;5033270;28;20204;-63
2023/09/12 10:44:24;;;;;;;68.80;66.15;;;31.00;99.90;;;;;;5040071;28;20302;-64
2023/09/12 10:46:54;;;;;;;76.90;74.15;;;31.00;99.90;;;;;;5053665;28;20316;-63
2023/09/12 10:49:21;;;;;;;77.53;74.75;;;31.10;99.90;;;;;;5047107;28;20221;-64
2023/09/12 10:51:49;;;;;;;70.88;68.38;;;31.30;99.90;;;;;;5033723;28;20209;-63
2023/09/12 10:54:17;;;;;;;89.40;86.20;;;31.30;99.90;;;;;;5035618;28;20735;-67
2023/09/12 10:56:50;;;;;;;75.15;72.45;;;31.20;99.90;;;;;;5045911;28;20295;-63
2023/09/12 10:59:17;;;;;;;78.60;75.80;;;31.30;99.90;;;;;;5060784;28;20203;-65
2023/09/12 11:01:46;;;;;;;82.60;79.63;;;31.30;99.90;;;;;;5060547;28;20287;-63
2023/09/12 11:04:34;;;;;;;84.40;81.45;;;31.40;99.90;;;;;;5060291;28;20211;-62
2023/09/12 11:07:02;;;;;;;66.40;64.00;;;31.50;99.90;;;;;;5057153;28;20203;-63
2023/09/12 11:09:29;;;;;;;51.13;49.22;;;31.50;99.90;;;;;;5056553;28;20289;-64
2023/09/12 11:11:59;;;;;;;44.22;42.60;;;31.60;99.90;;;;;;5056515;28;20203;-62
2023/09/12 11:14:26;;;;;;;48.28;46.55;;;31.70;99.90;;;;;;5056035;28;20566;-62
2023/09/12 11:17:22;;;;;;;47.28;45.58;;;31.60;99.90;;;;;;5056785;28;20271;-62
2023/09/12 11:19:53;;;;;;;50.80;48.83;;;31.80;99.90;;;;;;5056849;28;20211;-67
2023/09/12 11:22:25;;;;;;;55.85;53.85;;;31.90;99.90;;;;;;5056172;28;20604;-64
2023/09/12 11:24:52;;;;;;;51.85;50.00;;;31.90;99.90;;;;;;5056768;28;20239;-62
2023/09/12 11:27:19;;;;;;;58.55;56.35;;;31.90;99.90;;;;;;5056393;28;20813;-65
2023/09/12 11:29:47;;;;;;;65.10;62.80;;;31.90;99.90;;;;;;5058357;28;20255;-64
2023/09/12 11:32:26;;;;;;;58.78;56.65;;;31.90;99.90;;;;;;5063480;28;20224;-64
2023/09/12 11:34:55;;;;;;;79.32;76.53;;;32.10;99.90;;;;;;5063503;28;20310;-67
2023/09/12 11:37:25;;;;;;;66.53;64.18;;;32.00;99.90;;;;;;5062841;28;20196;-64
2023/09/12 11:39:52;;;;;;;60.17;58.03;;;32.10;99.90;;;;;;5044415;28;20208;-64
2023/09/12 11:42:21;;;;;;;80.43;77.57;;;32.30;99.90;;;;;;5036834;28;20349;-65
2023/09/12 11:44:48;;;;;;;46.03;44.35;;;32.30;99.90;;;;;;5037154;28;20209;-64
2023/09/12 11:47:16;;;;;;;90.70;86.15;;;32.20;99.90;;;;;;5037608;28;20292;-64
2023/09/12 11:49:43;;;;;;;50.60;48.75;;;32.10;99.90;;;;;;5045477;28;20221;-64
2023/09/12 11:52:13;;;;;;;45.92;44.28;;;32.10;99.90;;;;;;5055922;28;20310;-65
2023/09/12 11:54:40;;;;;;;65.40;63.05;;;32.20;99.90;;;;;;5056384;28;20208;-64
2023/09/12 11:57:09;;;;;;;87.65;84.40;;;32.30;99.90;;;;;;5056929;28;20219;-62
2023/09/12 11:59:39;;;;;;;60.83;58.65;;;32.40;99.90;;;;;;5056033;28;20295;-64
2023/09/12 12:02:08;;;;;;;69.10;66.50;;;32.50;99.90;;;;;;5055889;28;20224;-63
2023/09/12 12:04:36;;;;;;;59.75;57.63;;;32.60;99.90;;;;;;5055700;28;20200;-67
2023/09/12 12:07:03;;;;;;;59.03;56.92;;;32.60;99.90;;;;;;5054344;28;20200;-64
2023/09/12 12:09:32;;;;;;;68.38;65.75;;;32.60;99.90;;;;;;5053488;28;20232;-63
2023/09/12 12:12:05;;;;;;;69.53;66.82;;;32.50;99.90;;;;;;5052669;28;20735;-63
2023/09/12 12:14:35;;;;;;;37.80;36.40;;;32.50;99.90;;;;;;5052577;28;20204;-63
2023/09/12 12:17:07;;;;;;;34.35;33.10;;;32.50;99.90;;;;;;5052991;28;20204;-63
2023/09/12 12:19:34;;;;;;;49.72;47.90;;;32.50;99.90;;;;;;5052587;28;20195;-62
2023/09/12 12:22:01;;;;;;;53.92;51.95;;;32.40;99.90;;;;;;5053013;28;20235;-63
2023/09/12 12:24:39;;;;;;;73.13;70.30;;;32.40;99.90;;;;;;5052343;28;20654;-63
2023/09/12 12:27:07;;;;;;;48.67;46.88;;;32.40;99.90;;;;;;5033490;28;20214;-64
2023/09/12 12:29:34;;;;;;;42.85;41.30;;;32.30;99.90;;;;;;5033026;28;20217;-64
2023/09/12 12:32:01;;;;;;;41.35;39.85;;;32.30;99.90;;;;;;5034156;28;20231;-63